sensor_id;sensor_type;location;lat;lon;timestamp;P1;durP1;ratioP1;P2;durP2;ratioP2
16660;SDS011;8444;52.012;5.048;2023-08-12T00:01:33;12.18;;;7.15;;
16660;SDS011;8444;52.012;5.048;2023-08-12T00:03:58;10.45;;;6.45;;
16660;SDS011;8444;52.012;5.048;2023-08-12T00:06:23;12.68;;;6.53;;
16660;SDS011;8444;52.012;5.048;2023-08-12T00:08:49;12.45;;;6.90;;
16660;SDS011;8444;52.012;5.048;2023-08-12T00:11:14;11.43;;;6.05;;
16660;SDS011;8444;52.012;5.048;2023-08-12T00:13:39;9.50;;;6.10;;
16660;SDS011;8444;52.012;5.048;2023-08-12T00:16:04;14.20;;;6.35;;
16660;SDS011;8444;52.012;5.048;2023-08-12T00:18:30;10.05;;;6.22;;
16660;SDS011;8444;52.012;5.048;2023-08-12T00:21:01;8.80;;;5.22;;
16660;SDS011;8444;52.012;5.048;2023-08-12T00:23:28;8.68;;;6.05;;
16660;SDS011;8444;52.012;5.048;2023-08-12T00:25:57;11.40;;;6.45;;
16660;SDS011;8444;52.012;5.048;2023-08-12T00:28:22;17.58;;;6.63;;
16660;SDS011;8444;52.012;5.048;2023-08-12T00:30:48;7.50;;;5.15;;
16660;SDS011;8444;52.012;5.048;2023-08-12T00:33:14;14.23;;;5.70;;
16660;SDS011;8444;52.012;5.048;2023-08-12T00:35:39;11.85;;;5.97;;
16660;SDS011;8444;52.012;5.048;2023-08-12T00:38:04;12.50;;;6.03;;
16660;SDS011;8444;52.012;5.048;2023-08-12T00:40:29;11.10;;;5.40;;
16660;SDS011;8444;52.012;5.048;2023-08-12T00:42:55;10.98;;;5.28;;
16660;SDS011;8444;52.012;5.048;2023-08-12T00:45:20;12.50;;;6.13;;
16660;SDS011;8444;52.012;5.048;2023-08-12T00:47:45;12.40;;;6.10;;
16660;SDS011;8444;52.012;5.048;2023-08-12T00:50:11;11.77;;;5.97;;
16660;SDS011;8444;52.012;5.048;2023-08-12T00:52:37;8.85;;;5.68;;
16660;SDS011;8444;52.012;5.048;2023-08-12T00:55:02;11.98;;;6.55;;
16660;SDS011;8444;52.012;5.048;2023-08-12T00:57:27;12.75;;;5.38;;
16660;SDS011;8444;52.012;5.048;2023-08-12T00:59:53;10.15;;;5.63;;
16660;SDS011;8444;52.012;5.048;2023-08-12T01:02:20;10.35;;;5.88;;
16660;SDS011;8444;52.012;5.048;2023-08-12T01:04:45;15.90;;;5.70;;
16660;SDS011;8444;52.012;5.048;2023-08-12T01:07:11;10.25;;;5.88;;
16660;SDS011;8444;52.012;5.048;2023-08-12T01:09:36;9.95;;;5.78;;
16660;SDS011;8444;52.012;5.048;2023-08-12T01:12:03;9.60;;;5.30;;
16660;SDS011;8444;52.012;5.048;2023-08-12T01:17:04;12.30;;;6.32;;
16660;SDS011;8444;52.012;5.048;2023-08-12T01:19:34;13.43;;;6.22;;
16660;SDS011;8444;52.012;5.048;2023-08-12T01:22:03;9.32;;;5.82;;
16660;SDS011;8444;52.012;5.048;2023-08-12T01:24:38;11.77;;;5.97;;
16660;SDS011;8444;52.012;5.048;2023-08-12T01:27:04;11.77;;;5.60;;
16660;SDS011;8444;52.012;5.048;2023-08-12T01:29:29;12.40;;;6.55;;
16660;SDS011;8444;52.012;5.048;2023-08-12T01:31:56;10.60;;;6.78;;
16660;SDS011;8444;52.012;5.048;2023-08-12T01:34:29;9.07;;;6.00;;
16660;SDS011;8444;52.012;5.048;2023-08-12T01:36:58;9.65;;;7.00;;
16660;SDS011;8444;52.012;5.048;2023-08-12T01:39:23;10.85;;;6.68;;
16660;SDS011;8444;52.012;5.048;2023-08-12T01:41:51;17.73;;;7.93;;
16660;SDS011;8444;52.012;5.048;2023-08-12T01:44:17;13.80;;;8.05;;
16660;SDS011;8444;52.012;5.048;2023-08-12T01:46:46;13.18;;;8.05;;
16660;SDS011;8444;52.012;5.048;2023-08-12T01:49:11;13.35;;;8.38;;
16660;SDS011;8444;52.012;5.048;2023-08-12T01:51:36;14.27;;;8.07;;
16660;SDS011;8444;52.012;5.048;2023-08-12T01:54:01;12.68;;;7.57;;
16660;SDS011;8444;52.012;5.048;2023-08-12T01:56:27;14.02;;;7.72;;
16660;SDS011;8444;52.012;5.048;2023-08-12T01:58:53;11.55;;;7.88;;
16660;SDS011;8444;52.012;5.048;2023-08-12T02:01:18;14.65;;;8.88;;
16660;SDS011;8444;52.012;5.048;2023-08-12T02:03:43;18.58;;;9.13;;
16660;SDS011;8444;52.012;5.048;2023-08-12T02:06:08;15.55;;;9.93;;
16660;SDS011;8444;52.012;5.048;2023-08-12T02:08:34;18.30;;;9.85;;
16660;SDS011;8444;52.012;5.048;2023-08-12T02:10:59;15.55;;;8.85;;
16660;SDS011;8444;52.012;5.048;2023-08-12T02:13:24;13.70;;;8.88;;
16660;SDS011;8444;52.012;5.048;2023-08-12T02:15:49;19.85;;;11.23;;
16660;SDS011;8444;52.012;5.048;2023-08-12T02:18:14;20.20;;;11.90;;
16660;SDS011;8444;52.012;5.048;2023-08-12T02:20:40;17.55;;;10.82;;
16660;SDS011;8444;52.012;5.048;2023-08-12T02:23:05;18.77;;;10.60;;
16660;SDS011;8444;52.012;5.048;2023-08-12T02:25:31;19.98;;;11.02;;
16660;SDS011;8444;52.012;5.048;2023-08-12T02:27:56;19.52;;;10.43;;
16660;SDS011;8444;52.012;5.048;2023-08-12T02:30:21;17.45;;;10.05;;
16660;SDS011;8444;52.012;5.048;2023-08-12T02:32:46;16.40;;;10.10;;
16660;SDS011;8444;52.012;5.048;2023-08-12T02:35:12;18.30;;;9.90;;
16660;SDS011;8444;52.012;5.048;2023-08-12T02:37:37;17.73;;;9.30;;
16660;SDS011;8444;52.012;5.048;2023-08-12T02:40:03;17.17;;;10.13;;
16660;SDS011;8444;52.012;5.048;2023-08-12T02:42:31;16.52;;;10.35;;
16660;SDS011;8444;52.012;5.048;2023-08-12T02:44:56;14.90;;;9.88;;
16660;SDS011;8444;52.012;5.048;2023-08-12T02:47:21;13.82;;;9.55;;
16660;SDS011;8444;52.012;5.048;2023-08-12T02:49:46;19.42;;;11.45;;
16660;SDS011;8444;52.012;5.048;2023-08-12T02:52:12;16.77;;;10.30;;
16660;SDS011;8444;52.012;5.048;2023-08-12T02:54:37;16.92;;;9.85;;
16660;SDS011;8444;52.012;5.048;2023-08-12T02:57:03;11.65;;;9.13;;
16660;SDS011;8444;52.012;5.048;2023-08-12T02:59:28;14.35;;;8.45;;
16660;SDS011;8444;52.012;5.048;2023-08-12T03:01:55;18.35;;;10.43;;
16660;SDS011;8444;52.012;5.048;2023-08-12T03:04:20;20.45;;;10.25;;
16660;SDS011;8444;52.012;5.048;2023-08-12T03:06:45;16.92;;;10.57;;
16660;SDS011;8444;52.012;5.048;2023-08-12T03:09:10;14.75;;;10.27;;
16660;SDS011;8444;52.012;5.048;2023-08-12T03:11:36;16.83;;;9.98;;
16660;SDS011;8444;52.012;5.048;2023-08-12T03:14:01;18.10;;;10.73;;
16660;SDS011;8444;52.012;5.048;2023-08-12T03:16:26;17.02;;;10.57;;
16660;SDS011;8444;52.012;5.048;2023-08-12T03:18:51;14.70;;;10.25;;
16660;SDS011;8444;52.012;5.048;2023-08-12T03:21:17;19.70;;;10.00;;
16660;SDS011;8444;52.012;5.048;2023-08-12T03:23:42;14.43;;;10.40;;
16660;SDS011;8444;52.012;5.048;2023-08-12T03:26:07;19.92;;;11.05;;
16660;SDS011;8444;52.012;5.048;2023-08-12T03:28:32;15.88;;;9.43;;
16660;SDS011;8444;52.012;5.048;2023-08-12T03:30:58;16.33;;;9.80;;
16660;SDS011;8444;52.012;5.048;2023-08-12T03:33:23;16.92;;;9.70;;
16660;SDS011;8444;52.012;5.048;2023-08-12T03:35:48;16.33;;;10.30;;
16660;SDS011;8444;52.012;5.048;2023-08-12T03:38:14;20.17;;;10.23;;
16660;SDS011;8444;52.012;5.048;2023-08-12T03:40:39;15.68;;;10.55;;
16660;SDS011;8444;52.012;5.048;2023-08-12T03:43:05;17.50;;;9.85;;
16660;SDS011;8444;52.012;5.048;2023-08-12T03:45:30;18.25;;;10.32;;
16660;SDS011;8444;52.012;5.048;2023-08-12T03:47:55;15.82;;;10.18;;
16660;SDS011;8444;52.012;5.048;2023-08-12T03:50:20;21.15;;;10.13;;
16660;SDS011;8444;52.012;5.048;2023-08-12T03:52:46;14.57;;;10.18;;
16660;SDS011;8444;52.012;5.048;2023-08-12T03:55:11;16.25;;;10.65;;
16660;SDS011;8444;52.012;5.048;2023-08-12T03:57:36;23.20;;;10.98;;
16660;SDS011;8444;52.012;5.048;2023-08-12T04:00:01;17.92;;;10.13;;
16660;SDS011;8444;52.012;5.048;2023-08-12T04:02:27;19.40;;;10.55;;
16660;SDS011;8444;52.012;5.048;2023-08-12T04:04:53;16.05;;;10.18;;
16660;SDS011;8444;52.012;5.048;2023-08-12T04:07:18;15.60;;;10.60;;
16660;SDS011;8444;52.012;5.048;2023-08-12T04:09:43;21.35;;;10.40;;
16660;SDS011;8444;52.012;5.048;2023-08-12T04:12:08;13.80;;;9.30;;
16660;SDS011;8444;52.012;5.048;2023-08-12T04:14:34;17.77;;;10.82;;
16660;SDS011;8444;52.012;5.048;2023-08-12T04:16:59;13.48;;;9.02;;
16660;SDS011;8444;52.012;5.048;2023-08-12T04:19:24;16.40;;;9.60;;
16660;SDS011;8444;52.012;5.048;2023-08-12T04:21:49;14.00;;;10.20;;
16660;SDS011;8444;52.012;5.048;2023-08-12T04:24:14;16.92;;;9.20;;
16660;SDS011;8444;52.012;5.048;2023-08-12T04:26:40;15.50;;;9.27;;
16660;SDS011;8444;52.012;5.048;2023-08-12T04:29:05;17.25;;;9.73;;
16660;SDS011;8444;52.012;5.048;2023-08-12T04:31:30;17.65;;;9.65;;
16660;SDS011;8444;52.012;5.048;2023-08-12T04:33:55;14.90;;;9.82;;
16660;SDS011;8444;52.012;5.048;2023-08-12T04:36:21;16.17;;;10.07;;
16660;SDS011;8444;52.012;5.048;2023-08-12T04:38:46;15.48;;;9.95;;
16660;SDS011;8444;52.012;5.048;2023-08-12T04:41:11;14.35;;;9.50;;
16660;SDS011;8444;52.012;5.048;2023-08-12T04:43:37;16.60;;;10.25;;
16660;SDS011;8444;52.012;5.048;2023-08-12T04:46:02;15.68;;;9.93;;
16660;SDS011;8444;52.012;5.048;2023-08-12T04:48:27;14.95;;;10.00;;
16660;SDS011;8444;52.012;5.048;2023-08-12T04:50:52;13.70;;;9.88;;
16660;SDS011;8444;52.012;5.048;2023-08-12T04:53:17;13.48;;;9.82;;
16660;SDS011;8444;52.012;5.048;2023-08-12T04:55:43;15.25;;;10.35;;
16660;SDS011;8444;52.012;5.048;2023-08-12T04:58:08;13.02;;;9.40;;
16660;SDS011;8444;52.012;5.048;2023-08-12T05:00:33;18.73;;;10.23;;
16660;SDS011;8444;52.012;5.048;2023-08-12T05:02:58;17.45;;;9.20;;
16660;SDS011;8444;52.012;5.048;2023-08-12T05:05:25;16.13;;;11.00;;
16660;SDS011;8444;52.012;5.048;2023-08-12T05:07:50;15.73;;;9.20;;
16660;SDS011;8444;52.012;5.048;2023-08-12T05:10:16;19.33;;;10.30;;
16660;SDS011;8444;52.012;5.048;2023-08-12T05:12:42;14.50;;;10.40;;
16660;SDS011;8444;52.012;5.048;2023-08-12T05:15:07;18.27;;;11.50;;
16660;SDS011;8444;52.012;5.048;2023-08-12T05:17:32;16.20;;;10.95;;
16660;SDS011;8444;52.012;5.048;2023-08-12T05:19:58;14.80;;;10.40;;
16660;SDS011;8444;52.012;5.048;2023-08-12T05:22:23;16.23;;;10.25;;
16660;SDS011;8444;52.012;5.048;2023-08-12T05:24:48;15.82;;;10.23;;
16660;SDS011;8444;52.012;5.048;2023-08-12T05:27:13;16.25;;;9.15;;
16660;SDS011;8444;52.012;5.048;2023-08-12T05:29:39;15.82;;;9.85;;
16660;SDS011;8444;52.012;5.048;2023-08-12T05:32:04;13.73;;;9.68;;
16660;SDS011;8444;52.012;5.048;2023-08-12T05:34:29;13.63;;;9.73;;
16660;SDS011;8444;52.012;5.048;2023-08-12T05:36:54;13.63;;;9.68;;
16660;SDS011;8444;52.012;5.048;2023-08-12T05:39:20;19.00;;;10.43;;
16660;SDS011;8444;52.012;5.048;2023-08-12T05:41:45;17.38;;;9.18;;
16660;SDS011;8444;52.012;5.048;2023-08-12T05:44:11;16.08;;;9.27;;
16660;SDS011;8444;52.012;5.048;2023-08-12T05:46:36;15.50;;;9.70;;
16660;SDS011;8444;52.012;5.048;2023-08-12T05:49:01;13.70;;;9.10;;
16660;SDS011;8444;52.012;5.048;2023-08-12T05:51:27;13.90;;;8.40;;
16660;SDS011;8444;52.012;5.048;2023-08-12T05:53:52;10.57;;;7.15;;
16660;SDS011;8444;52.012;5.048;2023-08-12T05:56:17;10.30;;;7.05;;
16660;SDS011;8444;52.012;5.048;2023-08-12T05:58:43;9.80;;;6.80;;
16660;SDS011;8444;52.012;5.048;2023-08-12T06:01:08;9.70;;;6.50;;
16660;SDS011;8444;52.012;5.048;2023-08-12T06:03:33;12.30;;;8.75;;
16660;SDS011;8444;52.012;5.048;2023-08-12T06:05:58;16.50;;;9.70;;
16660;SDS011;8444;52.012;5.048;2023-08-12T06:08:23;14.88;;;8.98;;
16660;SDS011;8444;52.012;5.048;2023-08-12T06:10:49;11.63;;;8.02;;
16660;SDS011;8444;52.012;5.048;2023-08-12T06:13:14;13.48;;;7.68;;
16660;SDS011;8444;52.012;5.048;2023-08-12T06:15:39;10.88;;;6.45;;
16660;SDS011;8444;52.012;5.048;2023-08-12T06:18:05;7.90;;;5.47;;
16660;SDS011;8444;52.012;5.048;2023-08-12T06:20:30;5.90;;;4.90;;
16660;SDS011;8444;52.012;5.048;2023-08-12T06:22:55;5.10;;;4.55;;
16660;SDS011;8444;52.012;5.048;2023-08-12T06:25:21;7.25;;;4.90;;
16660;SDS011;8444;52.012;5.048;2023-08-12T06:27:46;8.32;;;5.30;;
16660;SDS011;8444;52.012;5.048;2023-08-12T06:30:12;8.38;;;5.45;;
16660;SDS011;8444;52.012;5.048;2023-08-12T06:32:37;7.03;;;5.07;;
16660;SDS011;8444;52.012;5.048;2023-08-12T06:35:03;8.68;;;5.10;;
16660;SDS011;8444;52.012;5.048;2023-08-12T06:37:28;8.85;;;5.22;;
16660;SDS011;8444;52.012;5.048;2023-08-12T06:39:53;8.00;;;4.65;;
16660;SDS011;8444;52.012;5.048;2023-08-12T06:42:18;7.20;;;4.95;;
16660;SDS011;8444;52.012;5.048;2023-08-12T06:44:44;9.88;;;4.28;;
16660;SDS011;8444;52.012;5.048;2023-08-12T06:47:10;5.38;;;4.30;;
16660;SDS011;8444;52.012;5.048;2023-08-12T06:49:35;7.55;;;4.38;;
16660;SDS011;8444;52.012;5.048;2023-08-12T06:52:00;6.32;;;4.53;;
16660;SDS011;8444;52.012;5.048;2023-08-12T06:54:25;5.65;;;3.90;;
16660;SDS011;8444;52.012;5.048;2023-08-12T06:56:50;5.22;;;4.72;;
16660;SDS011;8444;52.012;5.048;2023-08-12T06:59:16;7.07;;;5.13;;
16660;SDS011;8444;52.012;5.048;2023-08-12T07:01:42;5.68;;;4.75;;
16660;SDS011;8444;52.012;5.048;2023-08-12T07:04:07;5.38;;;4.68;;
16660;SDS011;8444;52.012;5.048;2023-08-12T07:06:32;7.15;;;4.88;;
16660;SDS011;8444;52.012;5.048;2023-08-12T07:08:57;6.15;;;4.97;;
16660;SDS011;8444;52.012;5.048;2023-08-12T07:11:22;7.70;;;5.80;;
16660;SDS011;8444;52.012;5.048;2023-08-12T07:13:48;6.80;;;4.80;;
16660;SDS011;8444;52.012;5.048;2023-08-12T07:16:13;8.70;;;5.80;;
16660;SDS011;8444;52.012;5.048;2023-08-12T07:18:38;7.88;;;5.65;;
16660;SDS011;8444;52.012;5.048;2023-08-12T07:21:04;8.23;;;5.45;;
16660;SDS011;8444;52.012;5.048;2023-08-12T07:23:29;11.15;;;5.70;;
16660;SDS011;8444;52.012;5.048;2023-08-12T07:25:54;6.30;;;4.90;;
16660;SDS011;8444;52.012;5.048;2023-08-12T07:28:19;6.80;;;5.45;;
16660;SDS011;8444;52.012;5.048;2023-08-12T07:30:45;6.68;;;5.50;;
16660;SDS011;8444;52.012;5.048;2023-08-12T07:33:10;7.18;;;6.00;;
16660;SDS011;8444;52.012;5.048;2023-08-12T07:35:35;7.13;;;5.80;;
16660;SDS011;8444;52.012;5.048;2023-08-12T07:38:00;7.85;;;6.65;;
16660;SDS011;8444;52.012;5.048;2023-08-12T07:40:26;7.25;;;5.43;;
16660;SDS011;8444;52.012;5.048;2023-08-12T07:42:51;4.68;;;3.88;;
16660;SDS011;8444;52.012;5.048;2023-08-12T07:45:16;11.98;;;4.63;;
16660;SDS011;8444;52.012;5.048;2023-08-12T07:47:41;4.28;;;3.50;;
16660;SDS011;8444;52.012;5.048;2023-08-12T07:50:06;4.60;;;2.70;;
16660;SDS011;8444;52.012;5.048;2023-08-12T07:52:32;2.50;;;1.92;;
16660;SDS011;8444;52.012;5.048;2023-08-12T07:54:57;1.60;;;1.50;;
16660;SDS011;8444;52.012;5.048;2023-08-12T07:57:22;2.50;;;2.15;;
16660;SDS011;8444;52.012;5.048;2023-08-12T07:59:49;2.17;;;1.90;;
16660;SDS011;8444;52.012;5.048;2023-08-12T08:02:14;1.73;;;1.60;;
16660;SDS011;8444;52.012;5.048;2023-08-12T08:04:40;1.75;;;1.23;;
16660;SDS011;8444;52.012;5.048;2023-08-12T08:07:05;2.08;;;1.38;;
16660;SDS011;8444;52.012;5.048;2023-08-12T08:09:30;1.40;;;1.30;;
16660;SDS011;8444;52.012;5.048;2023-08-12T08:11:55;1.42;;;1.23;;
16660;SDS011;8444;52.012;5.048;2023-08-12T08:14:20;1.42;;;1.08;;
16660;SDS011;8444;52.012;5.048;2023-08-12T08:16:46;1.23;;;1.10;;
16660;SDS011;8444;52.012;5.048;2023-08-12T08:19:11;1.55;;;1.13;;
16660;SDS011;8444;52.012;5.048;2023-08-12T08:21:36;1.55;;;1.05;;
16660;SDS011;8444;52.012;5.048;2023-08-12T08:24:02;4.03;;;2.00;;
16660;SDS011;8444;52.012;5.048;2023-08-12T08:26:27;3.30;;;1.08;;
16660;SDS011;8444;52.012;5.048;2023-08-12T08:28:52;4.82;;;1.88;;
16660;SDS011;8444;52.012;5.048;2023-08-12T08:31:17;5.20;;;1.70;;
16660;SDS011;8444;52.012;5.048;2023-08-12T08:33:43;3.10;;;1.73;;
16660;SDS011;8444;52.012;5.048;2023-08-12T08:36:08;5.18;;;2.08;;
16660;SDS011;8444;52.012;5.048;2023-08-12T08:38:33;6.57;;;1.80;;
16660;SDS011;8444;52.012;5.048;2023-08-12T08:40:58;6.68;;;1.80;;
16660;SDS011;8444;52.012;5.048;2023-08-12T08:43:24;4.65;;;1.77;;
16660;SDS011;8444;52.012;5.048;2023-08-12T08:45:52;4.00;;;1.73;;
16660;SDS011;8444;52.012;5.048;2023-08-12T08:48:17;5.30;;;2.15;;
16660;SDS011;8444;52.012;5.048;2023-08-12T08:50:42;4.68;;;2.25;;
16660;SDS011;8444;52.012;5.048;2023-08-12T08:53:10;5.88;;;2.28;;
16660;SDS011;8444;52.012;5.048;2023-08-12T08:55:36;4.68;;;2.03;;
16660;SDS011;8444;52.012;5.048;2023-08-12T08:58:02;3.17;;;2.03;;
16660;SDS011;8444;52.012;5.048;2023-08-12T09:00:27;3.88;;;2.00;;
16660;SDS011;8444;52.012;5.048;2023-08-12T09:02:53;7.90;;;2.17;;
16660;SDS011;8444;52.012;5.048;2023-08-12T09:05:18;2.75;;;1.52;;
16660;SDS011;8444;52.012;5.048;2023-08-12T09:07:45;5.90;;;1.85;;
16660;SDS011;8444;52.012;5.048;2023-08-12T09:10:11;3.10;;;1.80;;
16660;SDS011;8444;52.012;5.048;2023-08-12T09:12:36;5.50;;;2.05;;
16660;SDS011;8444;52.012;5.048;2023-08-12T09:15:02;5.43;;;1.67;;
16660;SDS011;8444;52.012;5.048;2023-08-12T09:17:29;5.65;;;1.70;;
16660;SDS011;8444;52.012;5.048;2023-08-12T09:19:54;2.25;;;1.30;;
16660;SDS011;8444;52.012;5.048;2023-08-12T09:22:20;3.75;;;1.85;;
16660;SDS011;8444;52.012;5.048;2023-08-12T09:24:45;2.80;;;1.63;;
16660;SDS011;8444;52.012;5.048;2023-08-12T09:27:11;3.38;;;1.90;;
16660;SDS011;8444;52.012;5.048;2023-08-12T09:29:36;4.90;;;1.83;;
16660;SDS011;8444;52.012;5.048;2023-08-12T09:32:11;3.25;;;1.52;;
16660;SDS011;8444;52.012;5.048;2023-08-12T09:34:37;3.60;;;1.52;;
16660;SDS011;8444;52.012;5.048;2023-08-12T09:37:02;2.80;;;1.52;;
16660;SDS011;8444;52.012;5.048;2023-08-12T09:39:28;3.88;;;1.40;;
16660;SDS011;8444;52.012;5.048;2023-08-12T09:41:54;3.67;;;1.30;;
16660;SDS011;8444;52.012;5.048;2023-08-12T09:44:20;4.50;;;1.58;;
16660;SDS011;8444;52.012;5.048;2023-08-12T09:46:45;5.68;;;1.77;;
16660;SDS011;8444;52.012;5.048;2023-08-12T09:49:10;4.47;;;1.63;;
16660;SDS011;8444;52.012;5.048;2023-08-12T09:51:36;3.00;;;1.30;;
16660;SDS011;8444;52.012;5.048;2023-08-12T09:54:01;4.65;;;1.95;;
16660;SDS011;8444;52.012;5.048;2023-08-12T09:56:27;6.32;;;1.95;;
16660;SDS011;8444;52.012;5.048;2023-08-12T09:58:55;2.72;;;1.20;;
16660;SDS011;8444;52.012;5.048;2023-08-12T10:01:21;4.50;;;1.63;;
16660;SDS011;8444;52.012;5.048;2023-08-12T10:03:48;6.15;;;1.98;;
16660;SDS011;8444;52.012;5.048;2023-08-12T10:06:14;4.07;;;1.50;;
16660;SDS011;8444;52.012;5.048;2023-08-12T10:08:40;4.97;;;1.65;;
16660;SDS011;8444;52.012;5.048;2023-08-12T10:11:05;2.85;;;1.52;;
16660;SDS011;8444;52.012;5.048;2023-08-12T10:13:31;4.03;;;1.80;;
16660;SDS011;8444;52.012;5.048;2023-08-12T10:15:56;5.35;;;1.33;;
16660;SDS011;8444;52.012;5.048;2023-08-12T10:18:22;3.60;;;1.00;;
16660;SDS011;8444;52.012;5.048;2023-08-12T10:20:47;4.05;;;1.13;;
16660;SDS011;8444;52.012;5.048;2023-08-12T10:23:14;2.97;;;1.25;;
16660;SDS011;8444;52.012;5.048;2023-08-12T10:25:39;4.40;;;1.25;;
16660;SDS011;8444;52.012;5.048;2023-08-12T10:28:06;5.60;;;1.50;;
16660;SDS011;8444;52.012;5.048;2023-08-12T10:30:32;5.63;;;1.48;;
16660;SDS011;8444;52.012;5.048;2023-08-12T10:32:59;5.57;;;1.48;;
16660;SDS011;8444;52.012;5.048;2023-08-12T10:35:39;2.35;;;1.42;;
16660;SDS011;8444;52.012;5.048;2023-08-12T10:38:05;3.08;;;1.45;;
16660;SDS011;8444;52.012;5.048;2023-08-12T10:40:30;1.92;;;1.20;;
16660;SDS011;8444;52.012;5.048;2023-08-12T10:42:56;1.55;;;0.95;;
16660;SDS011;8444;52.012;5.048;2023-08-12T10:45:21;5.85;;;1.55;;
16660;SDS011;8444;52.012;5.048;2023-08-12T10:50:24;4.90;;;1.98;;
16660;SDS011;8444;52.012;5.048;2023-08-12T10:52:51;5.13;;;1.17;;
16660;SDS011;8444;52.012;5.048;2023-08-12T10:55:17;3.45;;;0.98;;
16660;SDS011;8444;52.012;5.048;2023-08-12T10:57:43;3.78;;;0.95;;
16660;SDS011;8444;52.012;5.048;2023-08-12T11:00:10;7.63;;;1.23;;
16660;SDS011;8444;52.012;5.048;2023-08-12T11:02:36;2.92;;;1.00;;
16660;SDS011;8444;52.012;5.048;2023-08-12T11:05:03;2.97;;;1.20;;
16660;SDS011;8444;52.012;5.048;2023-08-12T11:09:55;4.22;;;1.65;;
16660;SDS011;8444;52.012;5.048;2023-08-12T11:12:30;4.82;;;1.35;;
16660;SDS011;8444;52.012;5.048;2023-08-12T11:14:57;3.35;;;1.10;;
16660;SDS011;8444;52.012;5.048;2023-08-12T11:17:28;2.33;;;1.00;;
16660;SDS011;8444;52.012;5.048;2023-08-12T11:19:54;6.22;;;1.42;;
16660;SDS011;8444;52.012;5.048;2023-08-12T11:22:20;5.88;;;1.67;;
16660;SDS011;8444;52.012;5.048;2023-08-12T11:24:45;6.32;;;1.73;;
16660;SDS011;8444;52.012;5.048;2023-08-12T11:27:10;5.78;;;1.63;;
16660;SDS011;8444;52.012;5.048;2023-08-12T11:29:36;9.68;;;2.33;;
16660;SDS011;8444;52.012;5.048;2023-08-12T11:32:02;4.18;;;1.60;;
16660;SDS011;8444;52.012;5.048;2023-08-12T11:34:27;6.47;;;1.60;;
16660;SDS011;8444;52.012;5.048;2023-08-12T11:36:52;2.90;;;1.10;;
16660;SDS011;8444;52.012;5.048;2023-08-12T11:39:18;5.55;;;1.90;;
16660;SDS011;8444;52.012;5.048;2023-08-12T11:41:43;4.05;;;1.20;;
16660;SDS011;8444;52.012;5.048;2023-08-12T11:44:14;6.43;;;1.45;;
16660;SDS011;8444;52.012;5.048;2023-08-12T11:46:40;3.92;;;1.20;;
16660;SDS011;8444;52.012;5.048;2023-08-12T11:49:05;4.33;;;1.37;;
16660;SDS011;8444;52.012;5.048;2023-08-12T11:51:30;6.83;;;1.43;;
16660;SDS011;8444;52.012;5.048;2023-08-12T11:53:56;5.45;;;1.25;;
16660;SDS011;8444;52.012;5.048;2023-08-12T11:56:21;3.72;;;1.38;;
16660;SDS011;8444;52.012;5.048;2023-08-12T11:58:49;5.88;;;1.25;;
16660;SDS011;8444;52.012;5.048;2023-08-12T12:01:21;2.75;;;1.20;;
16660;SDS011;8444;52.012;5.048;2023-08-12T12:03:51;6.55;;;1.30;;
16660;SDS011;8444;52.012;5.048;2023-08-12T12:06:16;5.38;;;1.17;;
16660;SDS011;8444;52.012;5.048;2023-08-12T12:08:44;2.88;;;1.20;;
16660;SDS011;8444;52.012;5.048;2023-08-12T12:11:09;5.00;;;1.30;;
16660;SDS011;8444;52.012;5.048;2023-08-12T12:13:35;3.90;;;1.10;;
16660;SDS011;8444;52.012;5.048;2023-08-12T12:16:00;6.50;;;1.63;;
16660;SDS011;8444;52.012;5.048;2023-08-12T12:18:26;1.95;;;1.38;;
16660;SDS011;8444;52.012;5.048;2023-08-12T12:20:57;5.18;;;1.30;;
16660;SDS011;8444;52.012;5.048;2023-08-12T12:23:26;3.30;;;1.00;;
16660;SDS011;8444;52.012;5.048;2023-08-12T12:25:56;3.25;;;1.30;;
16660;SDS011;8444;52.012;5.048;2023-08-12T12:28:21;2.72;;;1.38;;
16660;SDS011;8444;52.012;5.048;2023-08-12T12:30:47;4.33;;;1.43;;
16660;SDS011;8444;52.012;5.048;2023-08-12T12:33:12;3.47;;;1.30;;
16660;SDS011;8444;52.012;5.048;2023-08-12T12:35:37;3.75;;;1.50;;
16660;SDS011;8444;52.012;5.048;2023-08-12T12:38:02;5.70;;;1.80;;
16660;SDS011;8444;52.012;5.048;2023-08-12T12:40:28;7.20;;;1.80;;
16660;SDS011;8444;52.012;5.048;2023-08-12T12:42:53;4.97;;;1.63;;
16660;SDS011;8444;52.012;5.048;2023-08-12T12:45:18;5.00;;;1.83;;
16660;SDS011;8444;52.012;5.048;2023-08-12T12:47:43;8.43;;;1.93;;
16660;SDS011;8444;52.012;5.048;2023-08-12T12:50:08;4.27;;;1.37;;
16660;SDS011;8444;52.012;5.048;2023-08-12T12:52:34;5.28;;;1.63;;
16660;SDS011;8444;52.012;5.048;2023-08-12T12:54:59;4.15;;;1.10;;
16660;SDS011;8444;52.012;5.048;2023-08-12T12:57:25;9.13;;;1.90;;
16660;SDS011;8444;52.012;5.048;2023-08-12T12:59:50;6.30;;;1.42;;
16660;SDS011;8444;52.012;5.048;2023-08-12T13:02:16;6.33;;;2.00;;
16660;SDS011;8444;52.012;5.048;2023-08-12T13:04:41;4.37;;;1.60;;
16660;SDS011;8444;52.012;5.048;2023-08-12T13:07:06;7.40;;;1.92;;
16660;SDS011;8444;52.012;5.048;2023-08-12T13:09:31;6.07;;;1.57;;
16660;SDS011;8444;52.012;5.048;2023-08-12T13:11:56;4.55;;;1.23;;
16660;SDS011;8444;52.012;5.048;2023-08-12T13:14:23;7.72;;;2.05;;
16660;SDS011;8444;52.012;5.048;2023-08-12T13:16:48;5.88;;;1.92;;
16660;SDS011;8444;52.012;5.048;2023-08-12T13:19:14;7.90;;;1.53;;
16660;SDS011;8444;52.012;5.048;2023-08-12T13:21:39;5.53;;;1.70;;
16660;SDS011;8444;52.012;5.048;2023-08-12T13:24:04;6.03;;;1.40;;
16660;SDS011;8444;52.012;5.048;2023-08-12T13:26:30;6.07;;;1.80;;
16660;SDS011;8444;52.012;5.048;2023-08-12T13:28:55;3.83;;;1.70;;
16660;SDS011;8444;52.012;5.048;2023-08-12T13:31:20;8.90;;;2.05;;
16660;SDS011;8444;52.012;5.048;2023-08-12T13:33:45;10.48;;;1.58;;
16660;SDS011;8444;52.012;5.048;2023-08-12T13:36:11;4.80;;;1.75;;
16660;SDS011;8444;52.012;5.048;2023-08-12T13:38:36;6.35;;;1.98;;
16660;SDS011;8444;52.012;5.048;2023-08-12T13:41:02;8.23;;;1.80;;
16660;SDS011;8444;52.012;5.048;2023-08-12T13:43:27;4.27;;;1.33;;
16660;SDS011;8444;52.012;5.048;2023-08-12T13:45:52;5.40;;;1.92;;
16660;SDS011;8444;52.012;5.048;2023-08-12T13:48:18;9.27;;;1.67;;
16660;SDS011;8444;52.012;5.048;2023-08-12T13:50:43;8.43;;;1.65;;
16660;SDS011;8444;52.012;5.048;2023-08-12T13:53:08;4.88;;;1.83;;
16660;SDS011;8444;52.012;5.048;2023-08-12T13:55:33;6.85;;;1.40;;
16660;SDS011;8444;52.012;5.048;2023-08-12T13:57:59;5.10;;;1.40;;
16660;SDS011;8444;52.012;5.048;2023-08-12T14:00:24;6.22;;;1.42;;
16660;SDS011;8444;52.012;5.048;2023-08-12T14:02:49;6.03;;;1.92;;
16660;SDS011;8444;52.012;5.048;2023-08-12T14:05:15;5.78;;;1.90;;
16660;SDS011;8444;52.012;5.048;2023-08-12T14:07:40;7.15;;;1.63;;
16660;SDS011;8444;52.012;5.048;2023-08-12T14:10:06;5.35;;;1.40;;
16660;SDS011;8444;52.012;5.048;2023-08-12T14:12:31;6.20;;;2.10;;
16660;SDS011;8444;52.012;5.048;2023-08-12T14:14:57;6.55;;;1.75;;
16660;SDS011;8444;52.012;5.048;2023-08-12T14:17:22;6.78;;;1.50;;
16660;SDS011;8444;52.012;5.048;2023-08-12T14:19:48;3.45;;;1.23;;
16660;SDS011;8444;52.012;5.048;2023-08-12T14:22:14;6.63;;;1.48;;
16660;SDS011;8444;52.012;5.048;2023-08-12T14:24:39;7.00;;;1.70;;
16660;SDS011;8444;52.012;5.048;2023-08-12T14:27:04;3.67;;;1.23;;
16660;SDS011;8444;52.012;5.048;2023-08-12T14:29:30;6.57;;;1.70;;
16660;SDS011;8444;52.012;5.048;2023-08-12T14:31:55;5.38;;;1.98;;
16660;SDS011;8444;52.012;5.048;2023-08-12T14:34:20;6.20;;;1.67;;
16660;SDS011;8444;52.012;5.048;2023-08-12T14:36:45;7.38;;;1.88;;
16660;SDS011;8444;52.012;5.048;2023-08-12T14:39:11;6.17;;;1.30;;
16660;SDS011;8444;52.012;5.048;2023-08-12T14:41:36;6.60;;;1.67;;
16660;SDS011;8444;52.012;5.048;2023-08-12T14:44:01;5.40;;;1.77;;
16660;SDS011;8444;52.012;5.048;2023-08-12T14:46:26;5.45;;;1.48;;
16660;SDS011;8444;52.012;5.048;2023-08-12T14:48:51;11.20;;;1.77;;
16660;SDS011;8444;52.012;5.048;2023-08-12T14:51:18;4.18;;;1.45;;